CGF547 VOTV-VRMM
Flight info
| Callsign | CGF547 |
|---|---|
| Flight time | 1h 3m |
| Altitude | 36000 |
| Route | KALAK KIKIG DCT OSERA R457 PATLO PATLO1A |
| Aircraft | B738/M-SDE2E3FGHIRWXY/LB1 |
Departure
| Time | 2026-04-17 20:26 |
|---|---|
| Airport | Thiruvananthapuram International Airport (VOTV) |
Arrival
| Time | 2026-04-17 21:30 |
|---|---|
| Airport | Velana International Airport (VRMM) |
| Time | Latitude | Longitude | Altitude | Speed | Heading |
|---|---|---|---|---|---|
| 2026-04-17 20:19 | 8.47819 | 76.92006 | 25 ft | 0 kts | 185° |
| 2026-04-17 20:21 | 8.47825 | 76.92007 | 25 ft | 2 kts | 185° |
| 2026-04-17 20:21 | 8.47842 | 76.92008 | 30 ft | 3 kts | 185° |
| 2026-04-17 20:21 | 8.47863 | 76.92010 | 29 ft | 3 kts | 185° |
| 2026-04-17 20:22 | 8.47883 | 76.92012 | 25 ft | 3 kts | 185° |
| 2026-04-17 20:22 | 8.47903 | 76.92011 | 25 ft | 3 kts | 142° |
| 2026-04-17 20:22 | 8.47911 | 76.92001 | 30 ft | 0 kts | 92° |
| 2026-04-17 20:23 | 8.47905 | 76.92071 | 25 ft | 19 kts | 96° |
| 2026-04-17 20:24 | 8.47884 | 76.92286 | 26 ft | 44 kts | 97° |
| 2026-04-17 20:24 | 8.47821 | 76.92617 | 25 ft | 49 kts | 135° |
| 2026-04-17 20:24 | 8.47671 | 76.92617 | 25 ft | 27 kts | 221° |
| 2026-04-17 20:24 | 8.47498 | 76.92683 | 27 ft | 34 kts | 135° |
| 2026-04-17 20:25 | 8.47288 | 76.92892 | 25 ft | 44 kts | 136° |
| 2026-04-17 20:25 | 8.47244 | 76.93001 | 24 ft | 20 kts | 86° |
| 2026-04-17 20:25 | 8.47167 | 76.93071 | 24 ft | 0 kts | 207° |
| 2026-04-17 20:25 | 8.47167 | 76.93070 | 24 ft | 2 kts | 207° |
| 2026-04-17 20:26 | 8.47155 | 76.93021 | 26 ft | 13 kts | 314° |
| 2026-04-17 20:26 | 8.47453 | 76.92731 | 24 ft | 108 kts | 316° |
| 2026-04-17 20:26 | 8.48201 | 76.91994 | 70 ft | 186 kts | 317° |
| 2026-04-17 20:26 | 8.49220 | 76.91041 | 715 ft | 212 kts | 319° |
| 2026-04-17 20:27 | 8.50302 | 76.89999 | 1644 ft | 220 kts | 304° |
| 2026-04-17 20:27 | 8.50742 | 76.88472 | 2344 ft | 236 kts | 270° |
| 2026-04-17 20:27 | 8.50766 | 76.86788 | 3040 ft | 244 kts | 273° |
| 2026-04-17 20:27 | 8.50925 | 76.85050 | 3686 ft | 254 kts | 277° |
| 2026-04-17 20:28 | 8.51136 | 76.83214 | 4206 ft | 275 kts | 271° |
| 2026-04-17 20:28 | 8.50722 | 76.81316 | 4478 ft | 282 kts | 241° |
| 2026-04-17 20:28 | 8.49503 | 76.79764 | 4508 ft | 283 kts | 225° |
| 2026-04-17 20:28 | 8.48129 | 76.78341 | 4511 ft | 282 kts | 224° |
| 2026-04-17 20:29 | 8.46725 | 76.76905 | 4625 ft | 297 kts | 224° |
| 2026-04-17 20:29 | 8.45231 | 76.75363 | 5119 ft | 317 kts | 225° |
| 2026-04-17 20:29 | 8.43652 | 76.73714 | 5618 ft | 335 kts | 225° |
| 2026-04-17 20:29 | 8.41997 | 76.71973 | 6154 ft | 350 kts | 225° |
| 2026-04-17 20:30 | 8.38520 | 76.68314 | 7336 ft | 371 kts | 225° |
| 2026-04-17 20:30 | 8.36703 | 76.66424 | 7938 ft | 379 kts | 225° |
| 2026-04-17 20:30 | 8.34844 | 76.64497 | 8546 ft | 386 kts | 225° |
| 2026-04-17 20:31 | 8.32954 | 76.62538 | 9168 ft | 392 kts | 225° |
| 2026-04-17 20:31 | 8.31036 | 76.60548 | 9792 ft | 398 kts | 225° |
| 2026-04-17 20:31 | 8.29123 | 76.58562 | 10359 ft | 402 kts | 225° |
| 2026-04-17 20:31 | 8.27166 | 76.56530 | 10941 ft | 405 kts | 225° |
| 2026-04-17 20:32 | 8.25195 | 76.54483 | 11539 ft | 408 kts | 225° |
| 2026-04-17 20:32 | 8.23211 | 76.52423 | 12151 ft | 410 kts | 225° |
| 2026-04-17 20:32 | 8.21216 | 76.50351 | 12758 ft | 410 kts | 225° |
| 2026-04-17 20:32 | 8.19234 | 76.48293 | 13381 ft | 410 kts | 225° |
| 2026-04-17 20:33 | 8.17240 | 76.46224 | 13977 ft | 411 kts | 225° |
| 2026-04-17 20:33 | 8.15236 | 76.44144 | 14461 ft | 415 kts | 225° |
| 2026-04-17 20:33 | 8.13211 | 76.42043 | 14928 ft | 419 kts | 224° |
| 2026-04-17 20:33 | 8.11176 | 76.39939 | 15402 ft | 422 kts | 224° |
| 2026-04-17 20:34 | 8.09129 | 76.37837 | 16284 ft | 413 kts | 224° |
| 2026-04-17 20:34 | 8.07141 | 76.35800 | 17321 ft | 402 kts | 224° |
| 2026-04-17 20:34 | 8.05211 | 76.33822 | 18393 ft | 390 kts | 224° |
| 2026-04-17 20:34 | 8.03314 | 76.31877 | 19123 ft | 388 kts | 224° |
| 2026-04-17 20:35 | 8.01411 | 76.29926 | 19645 ft | 392 kts | 224° |
| 2026-04-17 20:35 | 7.99484 | 76.27951 | 20145 ft | 396 kts | 224° |
| 2026-04-17 20:35 | 7.97542 | 76.25961 | 20678 ft | 399 kts | 224° |
| 2026-04-17 20:35 | 7.95452 | 76.24177 | 21204 ft | 400 kts | 214° |
| 2026-04-17 20:36 | 7.93146 | 76.22600 | 21747 ft | 402 kts | 212° |
| 2026-04-17 20:36 | 7.90783 | 76.21082 | 22265 ft | 404 kts | 211° |
| 2026-04-17 20:36 | 7.88396 | 76.19571 | 22803 ft | 406 kts | 211° |
| 2026-04-17 20:36 | 7.86003 | 76.18048 | 23336 ft | 408 kts | 211° |
| 2026-04-17 20:37 | 7.83602 | 76.16503 | 23764 ft | 410 kts | 212° |
| 2026-04-17 20:37 | 7.81203 | 76.14944 | 24148 ft | 412 kts | 212° |
| 2026-04-17 20:37 | 7.78785 | 76.13361 | 24516 ft | 416 kts | 212° |
| 2026-04-17 20:37 | 7.76354 | 76.11761 | 24903 ft | 418 kts | 212° |
| 2026-04-17 20:38 | 7.73914 | 76.10151 | 25312 ft | 420 kts | 212° |
| 2026-04-17 20:38 | 7.71465 | 76.08535 | 25725 ft | 422 kts | 212° |
| 2026-04-17 20:38 | 7.69001 | 76.06906 | 26121 ft | 424 kts | 212° |
| 2026-04-17 20:38 | 7.66529 | 76.05273 | 26503 ft | 426 kts | 212° |
| 2026-04-17 20:39 | 7.64043 | 76.03631 | 26888 ft | 428 kts | 212° |
| 2026-04-17 20:39 | 7.61549 | 76.01985 | 27262 ft | 430 kts | 212° |
| 2026-04-17 20:39 | 7.59040 | 76.00329 | 27632 ft | 432 kts | 212° |
| 2026-04-17 20:39 | 7.56517 | 75.98663 | 28002 ft | 434 kts | 212° |
| 2026-04-17 20:40 | 7.53985 | 75.96993 | 28370 ft | 436 kts | 212° |
| 2026-04-17 20:40 | 7.51440 | 75.95314 | 28701 ft | 438 kts | 212° |
| 2026-04-17 20:40 | 7.48884 | 75.93628 | 29023 ft | 440 kts | 212° |
| 2026-04-17 20:40 | 7.46312 | 75.91932 | 29344 ft | 442 kts | 212° |
| 2026-04-17 20:41 | 7.43727 | 75.90227 | 29682 ft | 444 kts | 212° |
| 2026-04-17 20:41 | 7.41127 | 75.88513 | 30005 ft | 446 kts | 212° |
| 2026-04-17 20:41 | 7.38560 | 75.86821 | 30276 ft | 448 kts | 212° |
| 2026-04-17 20:41 | 7.35950 | 75.85100 | 30599 ft | 447 kts | 212° |
| 2026-04-17 20:42 | 7.33359 | 75.83392 | 31073 ft | 443 kts | 212° |
| 2026-04-17 20:42 | 7.30787 | 75.81696 | 31525 ft | 440 kts | 212° |
| 2026-04-17 20:42 | 7.28235 | 75.80014 | 31970 ft | 438 kts | 212° |
| 2026-04-17 20:42 | 7.25689 | 75.78337 | 32349 ft | 437 kts | 212° |
| 2026-04-17 20:43 | 7.23147 | 75.76663 | 32744 ft | 435 kts | 212° |
| 2026-04-17 20:43 | 7.20616 | 75.74996 | 33138 ft | 434 kts | 212° |
| 2026-04-17 20:43 | 7.18088 | 75.73331 | 33544 ft | 433 kts | 211° |
| 2026-04-17 20:43 | 7.15574 | 75.71676 | 34005 ft | 429 kts | 211° |
| 2026-04-17 20:44 | 7.13087 | 75.70038 | 34445 ft | 425 kts | 211° |
| 2026-04-17 20:44 | 7.10630 | 75.68420 | 34887 ft | 420 kts | 211° |
| 2026-04-17 20:44 | 7.08194 | 75.66817 | 35343 ft | 416 kts | 212° |
| 2026-04-17 20:44 | 7.05783 | 75.65230 | 35706 ft | 414 kts | 211° |
| 2026-04-17 20:45 | 7.00889 | 75.62012 | 35851 ft | 425 kts | 212° |
| 2026-04-17 20:45 | 6.95899 | 75.58732 | 35868 ft | 436 kts | 211° |
| 2026-04-17 20:46 | 6.90755 | 75.55350 | 35864 ft | 447 kts | 212° |
| 2026-04-17 20:46 | 6.85487 | 75.51887 | 35865 ft | 456 kts | 212° |
| 2026-04-17 20:47 | 6.80120 | 75.48358 | 35863 ft | 465 kts | 212° |
| 2026-04-17 20:47 | 6.74663 | 75.44772 | 35863 ft | 471 kts | 212° |
| 2026-04-17 20:48 | 6.69156 | 75.41154 | 35855 ft | 474 kts | 212° |
| 2026-04-17 20:48 | 6.63626 | 75.37521 | 35852 ft | 475 kts | 212° |
| 2026-04-17 20:49 | 6.58124 | 75.33909 | 35854 ft | 475 kts | 212° |
| 2026-04-17 20:49 | 6.52592 | 75.30277 | 35854 ft | 475 kts | 212° |
| 2026-04-17 20:50 | 6.47056 | 75.26645 | 35854 ft | 474 kts | 212° |
| 2026-04-17 20:50 | 6.41541 | 75.23027 | 35857 ft | 473 kts | 212° |
| 2026-04-17 20:51 | 6.36030 | 75.19412 | 35858 ft | 472 kts | 212° |
| 2026-04-17 20:51 | 6.30534 | 75.15809 | 35856 ft | 471 kts | 212° |
| 2026-04-17 20:52 | 6.25964 | 75.12813 | 35854 ft | 471 kts | 212° |
| 2026-04-17 20:52 | 6.20479 | 75.09218 | 35853 ft | 471 kts | 212° |
| 2026-04-17 20:53 | 6.14996 | 75.05625 | 35855 ft | 470 kts | 212° |
| 2026-04-17 20:53 | 6.09513 | 75.02032 | 35852 ft | 470 kts | 212° |
| 2026-04-17 20:54 | 6.04031 | 74.98441 | 35852 ft | 470 kts | 212° |
| 2026-04-17 20:54 | 5.98603 | 74.94777 | 35853 ft | 470 kts | 216° |
| 2026-04-17 20:55 | 5.93487 | 74.90738 | 35857 ft | 470 kts | 218° |
| 2026-04-17 20:55 | 5.88480 | 74.86676 | 35834 ft | 448 kts | 217° |
| 2026-04-17 20:56 | 5.86080 | 74.84742 | 35838 ft | 437 kts | 217° |
| 2026-04-17 20:56 | 5.83707 | 74.82842 | 35852 ft | 436 kts | 217° |
| 2026-04-17 20:56 | 5.78946 | 74.79051 | 35860 ft | 437 kts | 217° |
| 2026-04-17 20:57 | 5.74165 | 74.75253 | 35859 ft | 439 kts | 217° |
| 2026-04-17 20:57 | 5.69369 | 74.71441 | 35859 ft | 440 kts | 217° |
| 2026-04-17 20:58 | 5.64563 | 74.67621 | 35853 ft | 441 kts | 217° |
| 2026-04-17 20:58 | 5.59848 | 74.63873 | 35804 ft | 425 kts | 217° |
| 2026-04-17 20:59 | 5.55251 | 74.60220 | 35667 ft | 418 kts | 217° |
| 2026-04-17 20:59 | 5.52991 | 74.58424 | 35454 ft | 411 kts | 217° |
| 2026-04-17 20:59 | 5.50758 | 74.56650 | 35030 ft | 409 kts | 217° |
| 2026-04-17 21:00 | 5.48523 | 74.54876 | 34538 ft | 410 kts | 217° |
| 2026-04-17 21:00 | 5.46288 | 74.53101 | 34065 ft | 410 kts | 217° |
| 2026-04-17 21:00 | 5.44045 | 74.51322 | 33542 ft | 410 kts | 216° |
| 2026-04-17 21:00 | 5.41775 | 74.49591 | 32973 ft | 408 kts | 215° |
| 2026-04-17 21:01 | 5.39503 | 74.47917 | 32415 ft | 402 kts | 214° |
| 2026-04-17 21:01 | 5.37254 | 74.46280 | 31850 ft | 397 kts | 214° |
| 2026-04-17 21:01 | 5.35033 | 74.44666 | 31293 ft | 392 kts | 214° |
| 2026-04-17 21:01 | 5.32846 | 74.43071 | 30767 ft | 388 kts | 214° |
| 2026-04-17 21:02 | 5.30677 | 74.41485 | 30232 ft | 383 kts | 215° |
| 2026-04-17 21:02 | 5.28532 | 74.39912 | 29628 ft | 381 kts | 215° |
| 2026-04-17 21:02 | 5.26401 | 74.38346 | 28978 ft | 378 kts | 215° |
| 2026-04-17 21:02 | 5.24285 | 74.36790 | 28341 ft | 377 kts | 215° |
| 2026-04-17 21:03 | 5.22157 | 74.35225 | 27725 ft | 381 kts | 215° |
| 2026-04-17 21:03 | 5.20012 | 74.33646 | 27121 ft | 384 kts | 215° |
| 2026-04-17 21:03 | 5.17859 | 74.32062 | 26514 ft | 382 kts | 215° |
| 2026-04-17 21:03 | 5.15727 | 74.30493 | 25926 ft | 379 kts | 215° |
| 2026-04-17 21:04 | 5.13609 | 74.28934 | 25350 ft | 376 kts | 215° |
| 2026-04-17 21:04 | 5.11533 | 74.27406 | 24796 ft | 376 kts | 215° |
| 2026-04-17 21:04 | 5.09411 | 74.25845 | 24249 ft | 380 kts | 216° |
| 2026-04-17 21:04 | 5.07273 | 74.24272 | 23722 ft | 382 kts | 216° |
| 2026-04-17 21:05 | 5.05132 | 74.22697 | 23131 ft | 379 kts | 216° |
| 2026-04-17 21:05 | 5.03015 | 74.21139 | 22492 ft | 376 kts | 216° |
| 2026-04-17 21:05 | 5.00909 | 74.19590 | 21863 ft | 373 kts | 216° |
| 2026-04-17 21:05 | 4.98821 | 74.18054 | 21256 ft | 371 kts | 216° |
| 2026-04-17 21:06 | 4.96743 | 74.16526 | 20661 ft | 372 kts | 216° |
| 2026-04-17 21:06 | 4.94643 | 74.14981 | 20084 ft | 376 kts | 216° |
| 2026-04-17 21:06 | 4.92524 | 74.13423 | 19510 ft | 378 kts | 216° |
| 2026-04-17 21:06 | 4.90397 | 74.11860 | 18946 ft | 379 kts | 216° |
| 2026-04-17 21:07 | 4.88259 | 74.10288 | 18397 ft | 383 kts | 216° |
| 2026-04-17 21:07 | 4.86108 | 74.08707 | 17800 ft | 382 kts | 216° |
| 2026-04-17 21:07 | 4.83983 | 74.07144 | 17161 ft | 374 kts | 216° |
| 2026-04-17 21:07 | 4.81906 | 74.05617 | 16541 ft | 367 kts | 216° |
| 2026-04-17 21:08 | 4.79861 | 74.04114 | 15930 ft | 361 kts | 216° |
| 2026-04-17 21:08 | 4.77880 | 74.02658 | 15345 ft | 355 kts | 216° |
| 2026-04-17 21:08 | 4.75904 | 74.01205 | 14759 ft | 350 kts | 216° |
| 2026-04-17 21:08 | 4.73953 | 73.99772 | 14187 ft | 346 kts | 216° |
| 2026-04-17 21:09 | 4.72024 | 73.98354 | 13625 ft | 342 kts | 216° |
| 2026-04-17 21:09 | 4.70113 | 73.96950 | 13003 ft | 339 kts | 216° |
| 2026-04-17 21:09 | 4.68217 | 73.95557 | 12380 ft | 338 kts | 215° |
| 2026-04-17 21:09 | 4.66314 | 73.94159 | 11781 ft | 340 kts | 215° |
| 2026-04-17 21:10 | 4.64383 | 73.92741 | 11194 ft | 348 kts | 215° |
| 2026-04-17 21:10 | 4.62408 | 73.91291 | 10615 ft | 353 kts | 215° |
| 2026-04-17 21:10 | 4.60419 | 73.89830 | 10047 ft | 355 kts | 215° |
| 2026-04-17 21:10 | 4.58419 | 73.88361 | 9444 ft | 355 kts | 215° |
| 2026-04-17 21:11 | 4.56447 | 73.86912 | 8808 ft | 347 kts | 215° |
| 2026-04-17 21:11 | 4.54524 | 73.85499 | 8190 ft | 340 kts | 215° |
| 2026-04-17 21:11 | 4.52632 | 73.84110 | 7592 ft | 333 kts | 215° |
| 2026-04-17 21:11 | 4.50775 | 73.82746 | 7004 ft | 328 kts | 216° |
| 2026-04-17 21:12 | 4.48948 | 73.81404 | 6429 ft | 323 kts | 216° |
| 2026-04-17 21:12 | 4.47149 | 73.80083 | 5849 ft | 318 kts | 216° |
| 2026-04-17 21:12 | 4.45427 | 73.78820 | 5621 ft | 302 kts | 216° |
| 2026-04-17 21:12 | 4.43768 | 73.77602 | 5519 ft | 290 kts | 216° |
| 2026-04-17 21:13 | 4.42034 | 73.76637 | 5480 ft | 284 kts | 196° |
| 2026-04-17 21:13 | 4.40103 | 73.76388 | 5503 ft | 280 kts | 180° |
| 2026-04-17 21:13 | 4.38141 | 73.76380 | 5480 ft | 284 kts | 178° |
| 2026-04-17 21:13 | 4.36156 | 73.76396 | 5373 ft | 285 kts | 178° |
| 2026-04-17 21:14 | 4.34179 | 73.76413 | 5301 ft | 283 kts | 178° |
| 2026-04-17 21:14 | 4.32217 | 73.76427 | 5229 ft | 281 kts | 179° |
| 2026-04-17 21:14 | 4.30265 | 73.76437 | 5168 ft | 280 kts | 179° |
| 2026-04-17 21:14 | 4.28327 | 73.76444 | 5122 ft | 278 kts | 179° |
| 2026-04-17 21:15 | 4.26396 | 73.76448 | 5072 ft | 277 kts | 179° |
| 2026-04-17 21:15 | 4.24472 | 73.76452 | 5026 ft | 276 kts | 179° |
| 2026-04-17 21:15 | 4.22567 | 73.76454 | 5005 ft | 270 kts | 179° |
| 2026-04-17 21:15 | 4.20711 | 73.76456 | 4923 ft | 264 kts | 179° |
| 2026-04-17 21:16 | 4.18877 | 73.76457 | 4844 ft | 261 kts | 179° |
| 2026-04-17 21:16 | 4.17108 | 73.76458 | 4734 ft | 248 kts | 179° |
| 2026-04-17 21:16 | 4.15422 | 73.76459 | 4617 ft | 238 kts | 179° |
| 2026-04-17 21:16 | 4.13784 | 73.76460 | 4516 ft | 234 kts | 179° |
| 2026-04-17 21:17 | 4.12162 | 73.76461 | 4415 ft | 234 kts | 179° |
| 2026-04-17 21:17 | 4.10523 | 73.76463 | 4315 ft | 236 kts | 179° |
| 2026-04-17 21:17 | 4.08882 | 73.76464 | 4208 ft | 236 kts | 179° |
| 2026-04-17 21:17 | 4.07237 | 73.76465 | 4118 ft | 237 kts | 179° |
| 2026-04-17 21:18 | 4.05580 | 73.76466 | 4026 ft | 236 kts | 179° |
| 2026-04-17 21:18 | 4.03990 | 73.76467 | 3985 ft | 226 kts | 179° |
| 2026-04-17 21:18 | 4.02433 | 73.76468 | 3975 ft | 222 kts | 179° |
| 2026-04-17 21:18 | 4.00893 | 73.76469 | 3988 ft | 221 kts | 179° |
| 2026-04-17 21:19 | 3.99348 | 73.76470 | 3992 ft | 223 kts | 179° |
| 2026-04-17 21:19 | 3.97792 | 73.76471 | 3996 ft | 224 kts | 179° |
| 2026-04-17 21:19 | 3.96279 | 73.76161 | 3974 ft | 223 kts | 210° |
| 2026-04-17 21:19 | 3.95229 | 73.75091 | 3972 ft | 215 kts | 245° |
| 2026-04-17 21:20 | 3.94887 | 73.73680 | 3982 ft | 208 kts | 268° |
| 2026-04-17 21:20 | 3.94870 | 73.72236 | 3986 ft | 207 kts | 272° |
| 2026-04-17 21:20 | 3.94887 | 73.70794 | 3992 ft | 207 kts | 272° |
| 2026-04-17 21:20 | 3.94900 | 73.69347 | 3993 ft | 207 kts | 272° |
| 2026-04-17 21:21 | 3.94906 | 73.67903 | 3981 ft | 208 kts | 272° |
| 2026-04-17 21:21 | 3.94910 | 73.66467 | 3975 ft | 203 kts | 272° |
| 2026-04-17 21:21 | 3.94912 | 73.65074 | 3975 ft | 198 kts | 272° |
| 2026-04-17 21:21 | 3.94912 | 73.63707 | 3976 ft | 194 kts | 271° |
| 2026-04-17 21:22 | 3.94911 | 73.62384 | 3973 ft | 188 kts | 271° |
| 2026-04-17 21:22 | 3.94909 | 73.61082 | 3979 ft | 186 kts | 271° |
| 2026-04-17 21:22 | 3.94908 | 73.59786 | 3986 ft | 186 kts | 271° |
| 2026-04-17 21:22 | 3.94906 | 73.58490 | 3988 ft | 186 kts | 272° |
| 2026-04-17 21:23 | 3.94903 | 73.57230 | 3979 ft | 174 kts | 272° |
| 2026-04-17 21:23 | 3.94901 | 73.56055 | 3975 ft | 166 kts | 272° |
| 2026-04-17 21:23 | 3.94899 | 73.54907 | 3978 ft | 164 kts | 272° |
| 2026-04-17 21:23 | 3.95085 | 73.53810 | 3959 ft | 159 kts | 304° |
| 2026-04-17 21:24 | 3.95924 | 73.53192 | 3982 ft | 152 kts | 349° |
| 2026-04-17 21:24 | 3.96966 | 73.53178 | 4007 ft | 151 kts | 360° |
| 2026-04-17 21:24 | 3.97988 | 73.53153 | 3966 ft | 148 kts | 359° |
| 2026-04-17 21:24 | 3.99024 | 73.53136 | 3809 ft | 148 kts | 360° |
| 2026-04-17 21:25 | 4.00051 | 73.53126 | 3620 ft | 146 kts | 359° |
| 2026-04-17 21:25 | 4.01062 | 73.53121 | 3428 ft | 143 kts | 360° |
| 2026-04-17 21:25 | 4.02068 | 73.53118 | 3258 ft | 145 kts | 360° |
| 2026-04-17 21:25 | 4.03083 | 73.53116 | 3054 ft | 145 kts | 360° |
| 2026-04-17 21:26 | 4.04091 | 73.53115 | 2849 ft | 145 kts | 359° |
| 2026-04-17 21:26 | 4.05099 | 73.53114 | 2660 ft | 145 kts | 359° |
| 2026-04-17 21:26 | 4.06109 | 73.53113 | 2462 ft | 145 kts | 359° |
| 2026-04-17 21:26 | 4.07113 | 73.53112 | 2283 ft | 144 kts | 359° |
| 2026-04-17 21:27 | 4.08115 | 73.53112 | 2090 ft | 143 kts | 359° |
| 2026-04-17 21:27 | 4.09117 | 73.53111 | 1911 ft | 144 kts | 358° |
| 2026-04-17 21:27 | 4.10119 | 73.53110 | 1704 ft | 142 kts | 358° |
| 2026-04-17 21:27 | 4.11102 | 73.53109 | 1504 ft | 141 kts | 357° |
| 2026-04-17 21:28 | 4.12080 | 73.53108 | 1325 ft | 143 kts | 357° |
| 2026-04-17 21:28 | 4.13128 | 73.53097 | 1205 ft | 152 kts | 354° |
| 2026-04-17 21:28 | 4.14144 | 73.53020 | 969 ft | 144 kts | 354° |
| 2026-04-17 21:28 | 4.15130 | 73.52981 | 712 ft | 141 kts | 359° |
| 2026-04-17 21:29 | 4.16145 | 73.52972 | 507 ft | 148 kts | 358° |
| 2026-04-17 21:29 | 4.17176 | 73.52949 | 275 ft | 148 kts | 357° |
| 2026-04-17 21:29 | 4.18180 | 73.52933 | 16 ft | 138 kts | 355° |
| 2026-04-17 21:29 | 4.19002 | 73.52921 | 16 ft | 97 kts | 359° |
| 2026-04-17 21:30 | 4.19507 | 73.52908 | 13 ft | 40 kts | 0° |
| 2026-04-17 21:30 | 4.19700 | 73.52868 | 13 ft | 2 kts | 266° |
| 2026-04-17 21:30 | 4.19699 | 73.52832 | 13 ft | 9 kts | 269° |
| 2026-04-17 21:30 | 4.19694 | 73.52783 | 14 ft | 5 kts | 248° |
| 2026-04-17 21:31 | 4.19692 | 73.52774 | 15 ft | 0 kts | 269° |